createdAt,value
2023-08-15T00:02:09.511Z,20.80
2023-08-15T00:04:36.921Z,20.80
2023-08-15T00:07:07.173Z,20.70
2023-08-15T00:09:34.053Z,20.80
2023-08-15T00:12:01.158Z,20.70
2023-08-15T00:14:28.453Z,20.70
2023-08-15T00:16:55.322Z,20.60
2023-08-15T00:19:22.212Z,20.60
2023-08-15T00:21:49.068Z,20.50
2023-08-15T00:24:15.968Z,20.50
2023-08-15T00:26:42.925Z,20.50
2023-08-15T00:29:09.843Z,20.50
2023-08-15T00:31:36.682Z,20.60
2023-08-15T00:34:03.658Z,20.60
2023-08-15T00:36:30.545Z,20.70
2023-08-15T00:38:57.655Z,20.70
2023-08-15T00:41:24.526Z,20.70
2023-08-15T00:43:51.382Z,20.80
2023-08-15T00:46:18.545Z,20.80
2023-08-15T00:48:45.538Z,20.70
2023-08-15T00:51:12.636Z,20.60
2023-08-15T00:53:39.817Z,20.70
2023-08-15T00:56:07.802Z,20.70
2023-08-15T00:58:35.294Z,20.80
2023-08-15T01:01:03.540Z,20.80
2023-08-15T01:03:31.363Z,20.90
2023-08-15T01:05:58.365Z,20.90
2023-08-15T01:08:25.209Z,20.80
2023-08-15T01:10:52.044Z,20.80
2023-08-15T01:13:33.702Z,20.80
2023-08-15T01:16:04.041Z,20.70
2023-08-15T01:18:36.748Z,20.70
2023-08-15T01:21:04.791Z,20.60
2023-08-15T01:23:44.995Z,20.60
2023-08-15T01:26:12.236Z,20.60
2023-08-15T01:28:42.461Z,20.60
2023-08-15T01:31:18.212Z,20.60
2023-08-15T01:34:12.530Z,20.60
2023-08-15T01:36:51.639Z,20.80
2023-08-15T01:39:26.567Z,20.80
2023-08-15T01:41:54.762Z,20.90
2023-08-15T01:44:22.099Z,20.90
2023-08-15T01:46:49.320Z,21.00
2023-08-15T01:49:16.158Z,21.00
2023-08-15T01:51:43.781Z,21.10
2023-08-15T01:54:10.712Z,21.10
2023-08-15T01:56:37.632Z,21.20
2023-08-15T01:59:04.795Z,21.20
2023-08-15T02:01:31.770Z,21.20
2023-08-15T02:03:58.698Z,21.20
2023-08-15T02:06:25.667Z,21.20
2023-08-15T02:08:52.666Z,21.30
2023-08-15T02:11:19.603Z,21.30
2023-08-15T02:13:46.453Z,21.30
2023-08-15T02:16:13.315Z,21.40
2023-08-15T02:18:42.352Z,21.40
2023-08-15T02:21:09.595Z,21.40
2023-08-15T02:23:36.428Z,21.50
2023-08-15T02:26:04.453Z,21.40
2023-08-15T02:28:32.554Z,21.40
2023-08-15T02:30:59.653Z,21.40
2023-08-15T02:33:26.847Z,21.40
2023-08-15T02:35:53.970Z,21.40
2023-08-15T02:38:20.859Z,21.50
2023-08-15T02:40:49.055Z,21.50
2023-08-15T02:43:15.937Z,21.40
2023-08-15T02:45:42.789Z,21.40
2023-08-15T02:48:09.607Z,21.40
2023-08-15T02:50:36.549Z,21.40
2023-08-15T02:53:03.453Z,21.40
2023-08-15T02:55:30.421Z,21.30
2023-08-15T02:57:57.693Z,21.20
2023-08-15T03:00:24.701Z,21.10
2023-08-15T03:02:51.776Z,21.00
2023-08-15T03:05:18.733Z,20.90
2023-08-15T03:07:46.065Z,20.90
2023-08-15T03:10:12.956Z,20.80
2023-08-15T03:12:39.902Z,20.70
2023-08-15T03:15:07.019Z,20.70
2023-08-15T03:17:35.407Z,20.60
2023-08-15T03:20:02.281Z,20.60
2023-08-15T03:22:29.186Z,20.60
2023-08-15T03:24:58.265Z,20.60
2023-08-15T03:27:25.101Z,20.70
2023-08-15T03:29:51.927Z,20.60
2023-08-15T03:32:18.816Z,20.50
2023-08-15T03:34:45.640Z,20.50
2023-08-15T03:37:12.459Z,20.30
2023-08-15T03:39:39.394Z,20.10
2023-08-15T03:42:06.455Z,20.00
2023-08-15T03:44:33.272Z,19.80
2023-08-15T03:47:00.169Z,19.70
2023-08-15T03:49:27.074Z,19.60
2023-08-15T03:51:53.893Z,19.60
2023-08-15T03:54:20.824Z,19.30
2023-08-15T03:56:47.704Z,19.30
2023-08-15T03:59:14.570Z,19.20
2023-08-15T04:01:41.502Z,19.10
2023-08-15T04:04:08.806Z,18.90
2023-08-15T04:06:35.785Z,18.90
2023-08-15T04:09:02.731Z,18.90
2023-08-15T04:11:29.596Z,18.80
2023-08-15T04:13:56.461Z,18.70
2023-08-15T04:16:23.451Z,18.70
2023-08-15T04:18:50.317Z,18.70
2023-08-15T04:21:17.175Z,18.60
2023-08-15T04:23:44.019Z,18.50
2023-08-15T04:26:10.852Z,18.60
2023-08-15T04:28:37.668Z,18.50
2023-08-15T04:31:04.808Z,18.50
2023-08-15T04:33:31.660Z,18.40
2023-08-15T04:35:58.571Z,18.40
2023-08-15T04:38:25.566Z,18.40
2023-08-15T04:40:52.432Z,18.40
2023-08-15T04:43:19.310Z,18.40
2023-08-15T04:45:46.162Z,18.30
2023-08-15T04:48:14.219Z,18.30
2023-08-15T04:50:41.375Z,18.40
2023-08-15T04:53:08.511Z,18.40
2023-08-15T04:55:35.954Z,18.40
2023-08-15T04:58:03.417Z,18.30
2023-08-15T05:00:33.148Z,18.40
2023-08-15T05:03:01.827Z,18.50
2023-08-15T05:05:28.940Z,18.50
2023-08-15T05:07:55.938Z,18.50
2023-08-15T05:10:23.528Z,18.50
2023-08-15T05:12:50.522Z,18.40
2023-08-15T05:15:17.400Z,18.40
2023-08-15T05:17:45.261Z,18.40
2023-08-15T05:20:13.459Z,18.50
2023-08-15T05:22:40.625Z,18.40
2023-08-15T05:25:08.000Z,18.50
2023-08-15T05:27:34.994Z,18.40
2023-08-15T05:30:01.907Z,18.40
2023-08-15T05:32:28.812Z,18.40
2023-08-15T05:34:55.778Z,18.40
2023-08-15T05:37:22.837Z,18.40
2023-08-15T05:39:50.333Z,18.50
2023-08-15T05:42:19.940Z,18.70
2023-08-15T05:44:47.638Z,18.90
2023-08-15T05:47:14.622Z,19.20
2023-08-15T05:49:43.089Z,19.40
2023-08-15T05:52:10.292Z,19.50
2023-08-15T05:54:37.219Z,19.90
2023-08-15T05:57:04.334Z,20.90
2023-08-15T05:59:31.206Z,21.90
2023-08-15T06:01:58.150Z,22.40
2023-08-15T06:04:25.061Z,22.30
2023-08-15T06:06:51.984Z,21.80
2023-08-15T06:09:18.967Z,21.20
2023-08-15T06:11:45.904Z,20.90
2023-08-15T06:14:12.748Z,20.70
2023-08-15T06:16:39.648Z,20.80
2023-08-15T06:19:06.666Z,21.50
2023-08-15T06:21:33.735Z,21.90
2023-08-15T06:24:00.601Z,22.50
2023-08-15T06:26:27.515Z,23.10
2023-08-15T06:28:54.385Z,23.80
2023-08-15T06:31:21.250Z,25.10
2023-08-15T06:33:48.154Z,26.00
2023-08-15T06:36:14.969Z,27.40
2023-08-15T06:38:41.811Z,27.80
2023-08-15T06:41:08.632Z,28.10
2023-08-15T06:43:36.087Z,28.80
2023-08-15T06:46:03.624Z,29.60
2023-08-15T06:48:31.526Z,29.80
2023-08-15T06:50:58.491Z,30.60
2023-08-15T06:53:25.361Z,31.00
2023-08-15T06:55:52.705Z,31.10
2023-08-15T06:58:20.242Z,31.20
2023-08-15T07:00:47.202Z,31.80
2023-08-15T07:03:17.907Z,32.10
2023-08-15T07:05:45.915Z,32.10
2023-08-15T07:08:14.483Z,32.30
2023-08-15T07:10:41.340Z,32.10
2023-08-15T07:13:08.322Z,32.10
2023-08-15T07:15:35.263Z,32.30
2023-08-15T07:18:02.208Z,32.40
2023-08-15T07:20:31.410Z,32.80
2023-08-15T07:23:01.340Z,32.90
2023-08-15T07:25:28.229Z,33.00
2023-08-15T07:27:55.058Z,33.00
2023-08-15T07:30:21.995Z,32.50
2023-08-15T07:32:48.908Z,32.20
2023-08-15T07:35:15.861Z,32.10
2023-08-15T07:37:42.718Z,32.40
2023-08-15T07:40:11.493Z,32.60
2023-08-15T07:42:38.683Z,32.50
2023-08-15T07:45:06.213Z,32.70
2023-08-15T07:47:35.752Z,32.70
2023-08-15T07:50:23.774Z,32.90
2023-08-15T07:52:51.221Z,32.80
2023-08-15T07:55:18.362Z,33.00
2023-08-15T07:57:45.977Z,33.20
2023-08-15T08:00:16.264Z,32.90
2023-08-15T08:02:45.495Z,32.60
2023-08-15T08:05:14.192Z,32.40
2023-08-15T08:07:42.936Z,32.60
2023-08-15T08:10:10.592Z,32.70
2023-08-15T08:12:37.703Z,32.60
2023-08-15T08:15:05.406Z,32.50
2023-08-15T08:17:32.350Z,32.80
2023-08-15T08:19:59.272Z,32.80
2023-08-15T08:22:26.144Z,32.60
2023-08-15T08:24:54.578Z,32.40
2023-08-15T08:27:22.314Z,32.10
2023-08-15T08:29:49.269Z,32.00
2023-08-15T08:32:16.132Z,31.60
2023-08-15T08:34:43.149Z,31.80
2023-08-15T08:37:10.113Z,31.70
2023-08-15T08:39:37.344Z,31.40
2023-08-15T08:42:05.017Z,31.20
2023-08-15T08:44:33.236Z,31.40
2023-08-15T08:47:01.349Z,31.60
2023-08-15T08:49:30.172Z,32.00
2023-08-15T08:51:58.630Z,31.40
2023-08-15T08:54:40.919Z,31.10
2023-08-15T08:57:13.268Z,31.20
2023-08-15T08:59:43.585Z,31.40
2023-08-15T09:02:14.301Z,31.20
2023-08-15T09:04:42.310Z,31.10
2023-08-15T09:07:09.474Z,30.90
2023-08-15T09:09:36.559Z,30.80
2023-08-15T09:12:03.784Z,30.50
2023-08-15T09:14:31.722Z,30.50
2023-08-15T09:19:40.403Z,31.20
2023-08-15T09:22:07.867Z,30.90
2023-08-15T09:24:34.701Z,30.90
2023-08-15T09:27:07.290Z,31.00
2023-08-15T09:29:35.466Z,31.10
2023-08-15T09:32:02.326Z,30.70
2023-08-15T09:34:29.153Z,30.30
2023-08-15T09:36:56.482Z,29.70
2023-08-15T09:39:23.985Z,29.20
2023-08-15T09:41:54.029Z,28.90
2023-08-15T09:44:31.988Z,28.50
2023-08-15T09:47:00.086Z,28.30
2023-08-15T09:49:29.072Z,28.00
2023-08-15T09:51:59.460Z,27.90
2023-08-15T09:54:26.922Z,27.70
2023-08-15T09:56:54.995Z,27.60
2023-08-15T09:59:22.105Z,27.50
2023-08-15T10:01:53.099Z,27.50
2023-08-15T10:04:23.604Z,27.40
2023-08-15T10:06:52.671Z,27.30
2023-08-15T10:09:19.749Z,27.30
2023-08-15T10:11:47.024Z,27.20
2023-08-15T10:14:19.707Z,27.00
2023-08-15T10:16:47.774Z,26.80
2023-08-15T10:19:18.824Z,26.80
2023-08-15T10:21:53.089Z,26.80
2023-08-15T10:24:20.077Z,26.60
2023-08-15T10:26:47.590Z,26.50
2023-08-15T10:29:14.589Z,26.60
2023-08-15T10:31:42.015Z,26.80
2023-08-15T10:34:11.011Z,27.00
2023-08-15T10:36:42.128Z,27.10
2023-08-15T10:39:08.993Z,27.20
2023-08-15T10:41:37.473Z,26.90
2023-08-15T10:44:09.573Z,26.70
2023-08-15T10:46:37.562Z,26.80
2023-08-15T10:49:12.045Z,26.90
2023-08-15T10:51:40.536Z,27.00
2023-08-15T10:54:12.742Z,27.00
2023-08-15T10:56:41.038Z,27.10
2023-08-15T10:59:10.265Z,27.30
2023-08-15T11:01:38.646Z,27.50
2023-08-15T11:04:09.780Z,27.50
2023-08-15T11:06:47.974Z,27.70
2023-08-15T11:09:15.953Z,27.60
2023-08-15T11:11:42.884Z,27.30
2023-08-15T11:14:18.153Z,27.30
2023-08-15T11:16:47.010Z,27.20
2023-08-15T11:19:22.979Z,27.30
2023-08-15T11:21:49.886Z,27.20
2023-08-15T11:24:16.894Z,27.30
2023-08-15T11:26:43.926Z,27.30
2023-08-15T11:29:14.303Z,27.30
2023-08-15T11:31:42.058Z,27.30
2023-08-15T11:34:12.550Z,27.00
2023-08-15T11:36:40.383Z,27.00
2023-08-15T11:39:12.831Z,27.10
2023-08-15T11:41:40.152Z,27.20
2023-08-15T11:44:07.196Z,27.30
2023-08-15T11:46:53.016Z,27.40
2023-08-15T11:49:22.911Z,27.70
2023-08-15T11:51:50.040Z,28.00
2023-08-15T11:54:17.174Z,28.00
2023-08-15T11:56:51.260Z,28.00
2023-08-15T11:59:21.893Z,28.20
2023-08-15T12:01:50.138Z,28.40
2023-08-15T12:04:17.934Z,28.50
2023-08-15T12:06:44.871Z,28.20
2023-08-15T12:09:16.665Z,28.10
2023-08-15T12:11:43.582Z,27.80
2023-08-15T12:14:20.784Z,27.70
2023-08-15T12:16:47.829Z,27.50
2023-08-15T12:19:17.174Z,27.60
2023-08-15T12:21:46.001Z,27.50
2023-08-15T12:24:12.833Z,27.50
2023-08-15T12:26:39.719Z,27.60
2023-08-15T12:29:06.522Z,27.60
2023-08-15T12:31:35.848Z,27.50
2023-08-15T12:34:02.793Z,27.50
2023-08-15T12:36:29.613Z,27.50
2023-08-15T12:38:56.448Z,27.60
2023-08-15T12:41:23.307Z,27.80
2023-08-15T12:43:50.303Z,27.60
2023-08-15T12:46:17.200Z,27.80
2023-08-15T12:48:44.126Z,27.90
2023-08-15T12:51:11.022Z,27.90
2023-08-15T12:53:37.922Z,27.90
2023-08-15T12:56:04.963Z,27.90
2023-08-15T12:58:32.455Z,27.80
2023-08-15T13:00:59.865Z,27.80
2023-08-15T13:03:27.028Z,27.90
2023-08-15T13:05:53.872Z,28.00
2023-08-15T13:08:21.639Z,28.00
2023-08-15T13:10:48.866Z,28.10
2023-08-15T13:13:15.751Z,28.20
2023-08-15T13:15:42.623Z,28.30
2023-08-15T13:18:09.565Z,28.30
2023-08-15T13:20:36.859Z,28.10
2023-08-15T13:23:03.751Z,27.70
2023-08-15T13:25:30.770Z,27.70
2023-08-15T13:27:58.228Z,27.80
2023-08-15T13:30:25.130Z,27.90
2023-08-15T13:32:52.066Z,28.00
2023-08-15T13:35:19.736Z,27.90
2023-08-15T13:37:46.638Z,27.90
2023-08-15T13:40:13.578Z,27.80
2023-08-15T13:42:41.418Z,27.80
2023-08-15T13:45:10.789Z,27.60
2023-08-15T13:47:39.487Z,27.70
2023-08-15T13:50:07.102Z,27.70
2023-08-15T13:52:34.381Z,27.90
2023-08-15T13:55:01.234Z,27.90
2023-08-15T13:57:28.286Z,27.90
2023-08-15T13:59:56.056Z,27.90
2023-08-15T14:02:22.943Z,27.90
2023-08-15T14:04:50.027Z,28.10
2023-08-15T14:07:16.990Z,28.30
2023-08-15T14:09:43.841Z,28.10
2023-08-15T14:12:10.704Z,28.10
2023-08-15T14:14:38.229Z,28.10
2023-08-15T14:19:30.528Z,28.20
2023-08-15T14:21:57.442Z,28.20
2023-08-15T14:24:24.263Z,28.00
2023-08-15T14:26:51.174Z,27.90
2023-08-15T14:29:17.994Z,27.80
2023-08-15T14:31:44.826Z,27.80
2023-08-15T14:34:11.640Z,27.80
2023-08-15T14:36:38.564Z,27.80
2023-08-15T14:39:05.594Z,27.70
2023-08-15T14:41:34.504Z,27.70
2023-08-15T14:44:01.746Z,27.70
2023-08-15T14:46:28.634Z,27.60
2023-08-15T14:48:55.552Z,27.60
2023-08-15T14:51:22.466Z,27.70
2023-08-15T14:53:49.287Z,27.70
2023-08-15T14:56:17.423Z,27.60
2023-08-15T14:58:45.766Z,27.50
2023-08-15T15:01:13.573Z,27.30
2023-08-15T15:03:40.874Z,27.30
2023-08-15T15:06:07.973Z,27.10
2023-08-15T15:08:34.948Z,26.90
2023-08-15T15:11:04.568Z,26.70
2023-08-15T15:13:31.928Z,26.80
2023-08-15T15:15:58.833Z,26.90
2023-08-15T15:18:25.770Z,27.10
2023-08-15T15:20:52.709Z,27.10
2023-08-15T15:23:19.906Z,27.20
2023-08-15T15:25:48.484Z,27.20
2023-08-15T15:28:15.864Z,27.10
2023-08-15T15:30:42.748Z,27.20
2023-08-15T15:33:09.670Z,27.20
2023-08-15T15:35:36.600Z,27.10
2023-08-15T15:38:03.666Z,27.00
2023-08-15T15:40:30.623Z,27.10
2023-08-15T15:42:57.505Z,27.10
2023-08-15T15:45:24.564Z,27.00
2023-08-15T15:47:51.451Z,27.10
2023-08-15T15:50:21.332Z,27.10
2023-08-15T15:52:49.056Z,26.90
2023-08-15T15:55:21.343Z,26.80
2023-08-15T15:57:48.516Z,26.80
2023-08-15T16:00:17.461Z,26.80
2023-08-15T16:02:44.739Z,26.90
2023-08-15T16:05:12.488Z,26.80
2023-08-15T16:07:39.628Z,26.80
2023-08-15T16:10:07.202Z,26.70
2023-08-15T16:12:34.085Z,26.80
2023-08-15T16:15:02.201Z,26.80
2023-08-15T16:17:29.457Z,27.00
2023-08-15T16:19:56.828Z,27.10
2023-08-15T16:22:23.988Z,27.20
2023-08-15T16:24:51.319Z,27.10
2023-08-15T16:27:18.210Z,26.90
2023-08-15T16:29:45.110Z,26.70
2023-08-15T16:32:15.692Z,26.60
2023-08-15T16:34:43.944Z,26.40
2023-08-15T16:37:10.823Z,26.30
2023-08-15T16:39:37.764Z,26.30
2023-08-15T16:42:04.944Z,26.30
2023-08-15T16:44:31.794Z,26.10
2023-08-15T16:46:58.739Z,26.10
2023-08-15T16:49:25.605Z,26.00
2023-08-15T16:51:52.442Z,25.90
2023-08-15T16:54:19.319Z,25.80
2023-08-15T16:56:46.133Z,25.70
2023-08-15T16:59:13.021Z,25.60
2023-08-15T17:01:40.013Z,25.60
2023-08-15T17:04:07.242Z,25.60
2023-08-15T17:06:34.345Z,25.60
2023-08-15T17:09:01.225Z,25.60
2023-08-15T17:11:28.169Z,25.70
2023-08-15T17:13:55.063Z,25.50
2023-08-15T17:16:21.971Z,25.40
2023-08-15T17:18:48.891Z,25.40
2023-08-15T17:21:15.807Z,25.40
2023-08-15T17:23:42.898Z,25.30
2023-08-15T17:26:09.856Z,25.20
2023-08-15T17:28:36.798Z,25.10
2023-08-15T17:31:03.706Z,25.00
2023-08-15T17:33:30.544Z,24.90
2023-08-15T17:35:57.359Z,24.80
2023-08-15T17:38:24.241Z,24.70
2023-08-15T17:40:51.084Z,24.60
2023-08-15T17:43:17.932Z,24.70
2023-08-15T17:45:44.755Z,24.80
2023-08-15T17:48:11.839Z,25.00
2023-08-15T17:50:38.866Z,25.00
2023-08-15T17:53:05.725Z,24.90
2023-08-15T17:55:32.634Z,24.80
2023-08-15T17:57:59.500Z,24.70
2023-08-15T18:00:27.862Z,24.50
2023-08-15T18:02:55.025Z,24.40
2023-08-15T18:05:22.384Z,24.40
2023-08-15T18:07:49.296Z,24.20
2023-08-15T18:10:16.315Z,24.10
2023-08-15T18:12:43.778Z,24.00
2023-08-15T18:15:11.744Z,24.00
2023-08-15T18:17:38.676Z,24.00
2023-08-15T18:20:06.285Z,23.90
2023-08-15T18:22:33.194Z,23.80
2023-08-15T18:25:00.028Z,23.80
2023-08-15T18:27:26.856Z,23.60
2023-08-15T18:29:53.917Z,23.60
2023-08-15T18:32:20.899Z,23.60
2023-08-15T18:34:47.932Z,23.50
2023-08-15T18:37:14.887Z,23.40
2023-08-15T18:39:41.718Z,23.30
2023-08-15T18:42:08.696Z,23.30
2023-08-15T18:44:35.585Z,23.20
2023-08-15T18:47:03.653Z,23.20
2023-08-15T18:49:31.436Z,23.10
2023-08-15T18:51:58.346Z,22.90
2023-08-15T18:54:26.197Z,22.90
2023-08-15T18:56:53.149Z,22.90
2023-08-15T18:59:24.271Z,22.80
2023-08-15T19:01:51.664Z,22.80
2023-08-15T19:04:18.531Z,22.70
2023-08-15T19:06:45.439Z,22.70
2023-08-15T19:09:12.272Z,22.60
2023-08-15T19:11:39.187Z,22.50
2023-08-15T19:14:06.134Z,22.50
2023-08-15T19:16:33.072Z,22.40
2023-08-15T19:19:04.100Z,22.50
2023-08-15T19:21:31.789Z,22.40
2023-08-15T19:23:58.681Z,22.30
2023-08-15T19:26:25.533Z,22.40
2023-08-15T19:28:52.448Z,22.50
2023-08-15T19:31:19.375Z,22.50
2023-08-15T19:33:46.245Z,22.40
2023-08-15T19:36:13.290Z,22.50
2023-08-15T19:38:40.135Z,22.40
2023-08-15T19:41:07.335Z,22.30
2023-08-15T19:43:34.257Z,22.20
2023-08-15T19:46:01.188Z,22.30
2023-08-15T19:48:28.367Z,22.30
2023-08-15T19:50:55.254Z,22.30
2023-08-15T19:53:22.126Z,22.30
2023-08-15T19:55:49.062Z,22.30
2023-08-15T19:58:17.042Z,22.30
2023-08-15T20:00:44.535Z,22.30
2023-08-15T20:03:11.447Z,22.20
2023-08-15T20:05:38.305Z,22.20
2023-08-15T20:08:06.336Z,22.20
2023-08-15T20:10:33.353Z,22.30
2023-08-15T20:13:00.228Z,22.30
2023-08-15T20:15:27.148Z,22.20
2023-08-15T20:17:54.583Z,22.20
2023-08-15T20:20:22.805Z,22.30
2023-08-15T20:22:49.806Z,22.20
2023-08-15T20:25:17.016Z,22.20
2023-08-15T20:27:43.916Z,22.00
2023-08-15T20:30:11.228Z,22.20
2023-08-15T20:32:38.290Z,22.10
2023-08-15T20:35:07.121Z,22.20
2023-08-15T20:37:34.472Z,22.20
2023-08-15T20:40:01.296Z,22.00
2023-08-15T20:42:28.239Z,22.10
2023-08-15T20:44:55.073Z,22.00
2023-08-15T20:47:21.937Z,21.90
2023-08-15T20:49:48.877Z,21.90
2023-08-15T20:52:15.748Z,21.80
2023-08-15T20:54:42.651Z,21.90
2023-08-15T20:57:09.581Z,21.70
2023-08-15T20:59:36.449Z,21.80
2023-08-15T21:02:04.782Z,21.80
2023-08-15T21:04:31.989Z,21.70
2023-08-15T21:06:58.977Z,21.60
2023-08-15T21:09:26.059Z,21.70
2023-08-15T21:11:53.103Z,21.80
2023-08-15T21:14:20.007Z,21.70
2023-08-15T21:16:47.209Z,21.70
2023-08-15T21:19:14.302Z,21.60
2023-08-15T21:21:41.131Z,21.60
2023-08-15T21:24:08.101Z,21.60
2023-08-15T21:26:37.129Z,21.40
2023-08-15T21:29:04.506Z,21.40
2023-08-15T21:31:32.536Z,21.40
2023-08-15T21:33:59.352Z,21.40
2023-08-15T21:36:26.364Z,21.30
2023-08-15T21:38:53.220Z,21.30
2023-08-15T21:41:20.116Z,21.30
2023-08-15T21:43:46.971Z,21.30
2023-08-15T21:46:14.055Z,21.10
2023-08-15T21:48:40.907Z,21.10
2023-08-15T21:51:07.814Z,21.00
2023-08-15T21:53:34.721Z,20.90
2023-08-15T21:56:01.605Z,21.00
2023-08-15T21:58:28.461Z,21.10
2023-08-15T22:00:55.422Z,20.90
2023-08-15T22:03:22.485Z,20.90
2023-08-15T22:05:49.637Z,20.80
2023-08-15T22:08:16.654Z,20.70
2023-08-15T22:10:47.800Z,20.70
2023-08-15T22:13:14.765Z,20.70
2023-08-15T22:15:41.722Z,20.70
2023-08-15T22:18:19.717Z,20.70
2023-08-15T22:20:46.968Z,20.70
2023-08-15T22:23:13.846Z,20.50
2023-08-15T22:25:47.978Z,20.50
2023-08-15T22:28:16.051Z,20.50
2023-08-15T22:30:43.271Z,20.50
2023-08-15T22:33:10.300Z,20.40
2023-08-15T22:35:41.925Z,20.40
2023-08-15T22:38:09.629Z,20.30
2023-08-15T22:40:36.611Z,20.30
2023-08-15T22:43:04.837Z,20.40
2023-08-15T22:45:31.939Z,20.30
2023-08-15T22:47:58.964Z,20.30
2023-08-15T22:50:25.872Z,20.20
2023-08-15T22:52:52.775Z,20.10
2023-08-15T22:55:19.644Z,20.00
2023-08-15T22:57:46.488Z,20.10
2023-08-15T23:00:13.939Z,20.10
2023-08-15T23:02:41.084Z,20.10
2023-08-15T23:05:08.348Z,20.00
2023-08-15T23:07:35.182Z,20.00
2023-08-15T23:10:02.194Z,19.90
2023-08-15T23:12:29.078Z,19.90
2023-08-15T23:14:56.106Z,19.90
2023-08-15T23:17:23.369Z,19.80
2023-08-15T23:19:50.542Z,19.80
2023-08-15T23:22:17.474Z,19.70
2023-08-15T23:24:44.300Z,19.70
2023-08-15T23:27:11.183Z,19.70
2023-08-15T23:29:38.084Z,19.70
2023-08-15T23:32:05.231Z,19.70
2023-08-15T23:34:32.115Z,19.60
2023-08-15T23:36:59.050Z,19.70
2023-08-15T23:39:26.313Z,19.80
2023-08-15T23:41:53.434Z,19.80
2023-08-15T23:44:20.336Z,19.70
2023-08-15T23:46:48.889Z,19.60
2023-08-15T23:49:16.088Z,19.70
2023-08-15T23:51:43.182Z,19.80
2023-08-15T23:54:10.101Z,19.80
2023-08-15T23:56:37.031Z,19.90
2023-08-15T23:59:04.246Z,19.80
